sensor_id;sensor_type;location;lat;lon;timestamp;P1;durP1;ratioP1;P2;durP2;ratioP2
9771;SDS011;4925;52.588;13.370;2024-02-26T00:01:44;13.93;;;9.70;;
9771;SDS011;4925;52.588;13.370;2024-02-26T00:04:10;12.77;;;9.33;;
9771;SDS011;4925;52.588;13.370;2024-02-26T00:06:37;11.07;;;9.10;;
9771;SDS011;4925;52.588;13.370;2024-02-26T00:09:06;12.93;;;9.70;;
9771;SDS011;4925;52.588;13.370;2024-02-26T00:11:32;14.17;;;9.40;;
9771;SDS011;4925;52.588;13.370;2024-02-26T00:13:57;13.53;;;9.67;;
9771;SDS011;4925;52.588;13.370;2024-02-26T00:16:24;14.60;;;9.33;;
9771;SDS011;4925;52.588;13.370;2024-02-26T00:18:50;12.03;;;8.83;;
9771;SDS011;4925;52.588;13.370;2024-02-26T00:21:16;11.63;;;9.10;;
9771;SDS011;4925;52.588;13.370;2024-02-26T00:23:44;10.60;;;7.77;;
9771;SDS011;4925;52.588;13.370;2024-02-26T00:26:10;12.37;;;8.57;;
9771;SDS011;4925;52.588;13.370;2024-02-26T00:28:36;13.07;;;8.80;;
9771;SDS011;4925;52.588;13.370;2024-02-26T00:31:02;12.87;;;8.73;;
9771;SDS011;4925;52.588;13.370;2024-02-26T00:33:28;12.77;;;9.13;;
9771;SDS011;4925;52.588;13.370;2024-02-26T00:35:54;10.03;;;7.80;;
9771;SDS011;4925;52.588;13.370;2024-02-26T00:38:19;11.80;;;7.63;;
9771;SDS011;4925;52.588;13.370;2024-02-26T00:40:47;10.67;;;8.07;;
9771;SDS011;4925;52.588;13.370;2024-02-26T00:43:12;14.77;;;8.40;;
9771;SDS011;4925;52.588;13.370;2024-02-26T00:45:38;15.83;;;8.40;;
9771;SDS011;4925;52.588;13.370;2024-02-26T00:48:04;9.90;;;6.73;;
9771;SDS011;4925;52.588;13.370;2024-02-26T00:50:33;12.17;;;8.83;;
9771;SDS011;4925;52.588;13.370;2024-02-26T00:52:59;11.77;;;7.30;;
9771;SDS011;4925;52.588;13.370;2024-02-26T00:55:25;10.63;;;8.17;;
9771;SDS011;4925;52.588;13.370;2024-02-26T00:57:51;9.83;;;7.37;;
9771;SDS011;4925;52.588;13.370;2024-02-26T01:00:17;10.97;;;7.00;;
9771;SDS011;4925;52.588;13.370;2024-02-26T01:02:43;10.23;;;8.03;;
9771;SDS011;4925;52.588;13.370;2024-02-26T01:05:13;9.27;;;6.80;;
9771;SDS011;4925;52.588;13.370;2024-02-26T01:07:39;9.13;;;7.03;;
9771;SDS011;4925;52.588;13.370;2024-02-26T01:10:08;12.87;;;7.57;;
9771;SDS011;4925;52.588;13.370;2024-02-26T01:12:34;13.23;;;8.03;;
9771;SDS011;4925;52.588;13.370;2024-02-26T01:15:01;11.20;;;7.50;;
9771;SDS011;4925;52.588;13.370;2024-02-26T01:17:30;11.83;;;7.83;;
9771;SDS011;4925;52.588;13.370;2024-02-26T01:19:56;10.60;;;7.17;;
9771;SDS011;4925;52.588;13.370;2024-02-26T01:22:22;9.00;;;6.93;;
9771;SDS011;4925;52.588;13.370;2024-02-26T01:24:48;8.63;;;6.70;;
9771;SDS011;4925;52.588;13.370;2024-02-26T01:27:19;9.43;;;6.27;;
9771;SDS011;4925;52.588;13.370;2024-02-26T01:29:47;8.03;;;5.93;;
9771;SDS011;4925;52.588;13.370;2024-02-26T01:32:12;8.03;;;5.97;;
9771;SDS011;4925;52.588;13.370;2024-02-26T01:34:38;10.13;;;5.83;;
9771;SDS011;4925;52.588;13.370;2024-02-26T01:37:04;13.43;;;5.63;;
9771;SDS011;4925;52.588;13.370;2024-02-26T01:39:29;6.80;;;6.07;;
9771;SDS011;4925;52.588;13.370;2024-02-26T01:41:55;8.77;;;6.27;;
9771;SDS011;4925;52.588;13.370;2024-02-26T01:44:21;7.60;;;5.60;;
9771;SDS011;4925;52.588;13.370;2024-02-26T01:46:47;9.00;;;5.90;;
9771;SDS011;4925;52.588;13.370;2024-02-26T01:49:13;8.13;;;5.73;;
9771;SDS011;4925;52.588;13.370;2024-02-26T01:51:40;9.00;;;6.00;;
9771;SDS011;4925;52.588;13.370;2024-02-26T01:54:08;9.20;;;6.30;;
9771;SDS011;4925;52.588;13.370;2024-02-26T01:56:35;6.67;;;5.33;;
9771;SDS011;4925;52.588;13.370;2024-02-26T01:59:04;7.10;;;5.63;;
9771;SDS011;4925;52.588;13.370;2024-02-26T02:01:31;6.37;;;5.50;;
9771;SDS011;4925;52.588;13.370;2024-02-26T02:03:58;7.57;;;4.53;;
9771;SDS011;4925;52.588;13.370;2024-02-26T02:06:24;7.10;;;5.13;;
9771;SDS011;4925;52.588;13.370;2024-02-26T02:08:52;4.80;;;4.40;;
9771;SDS011;4925;52.588;13.370;2024-02-26T02:11:19;5.80;;;4.77;;
9771;SDS011;4925;52.588;13.370;2024-02-26T02:13:44;6.67;;;5.07;;
9771;SDS011;4925;52.588;13.370;2024-02-26T02:16:10;5.47;;;4.90;;
9771;SDS011;4925;52.588;13.370;2024-02-26T02:18:36;5.57;;;4.27;;
9771;SDS011;4925;52.588;13.370;2024-02-26T02:21:03;6.17;;;4.87;;
9771;SDS011;4925;52.588;13.370;2024-02-26T02:23:29;9.37;;;5.50;;
9771;SDS011;4925;52.588;13.370;2024-02-26T02:25:54;7.47;;;5.67;;
9771;SDS011;4925;52.588;13.370;2024-02-26T02:28:22;8.60;;;5.90;;
9771;SDS011;4925;52.588;13.370;2024-02-26T02:30:50;5.67;;;4.97;;
9771;SDS011;4925;52.588;13.370;2024-02-26T02:33:16;7.17;;;5.60;;
9771;SDS011;4925;52.588;13.370;2024-02-26T02:35:42;6.07;;;4.83;;
9771;SDS011;4925;52.588;13.370;2024-02-26T02:38:08;7.53;;;5.03;;
9771;SDS011;4925;52.588;13.370;2024-02-26T02:40:34;6.50;;;5.23;;
9771;SDS011;4925;52.588;13.370;2024-02-26T02:42:59;6.37;;;5.07;;
9771;SDS011;4925;52.588;13.370;2024-02-26T02:45:27;5.80;;;4.77;;
9771;SDS011;4925;52.588;13.370;2024-02-26T02:47:53;7.03;;;4.90;;
9771;SDS011;4925;52.588;13.370;2024-02-26T02:50:18;5.17;;;4.40;;
9771;SDS011;4925;52.588;13.370;2024-02-26T02:52:44;5.40;;;4.37;;
9771;SDS011;4925;52.588;13.370;2024-02-26T02:55:10;7.33;;;4.57;;
9771;SDS011;4925;52.588;13.370;2024-02-26T02:57:36;5.93;;;5.00;;
9771;SDS011;4925;52.588;13.370;2024-02-26T03:00:07;6.27;;;4.30;;
9771;SDS011;4925;52.588;13.370;2024-02-26T03:02:34;6.50;;;4.67;;
9771;SDS011;4925;52.588;13.370;2024-02-26T03:05:04;7.10;;;4.50;;
9771;SDS011;4925;52.588;13.370;2024-02-26T03:07:30;6.93;;;4.93;;
9771;SDS011;4925;52.588;13.370;2024-02-26T03:09:56;7.47;;;4.53;;
9771;SDS011;4925;52.588;13.370;2024-02-26T03:12:22;7.80;;;4.17;;
9771;SDS011;4925;52.588;13.370;2024-02-26T03:14:47;6.00;;;4.87;;
9771;SDS011;4925;52.588;13.370;2024-02-26T03:17:13;5.53;;;4.80;;
9771;SDS011;4925;52.588;13.370;2024-02-26T03:19:40;6.03;;;4.47;;
9771;SDS011;4925;52.588;13.370;2024-02-26T03:22:06;5.47;;;4.37;;
9771;SDS011;4925;52.588;13.370;2024-02-26T03:24:32;5.60;;;4.30;;
9771;SDS011;4925;52.588;13.370;2024-02-26T03:26:58;8.00;;;5.23;;
9771;SDS011;4925;52.588;13.370;2024-02-26T03:29:23;7.90;;;4.70;;
9771;SDS011;4925;52.588;13.370;2024-02-26T03:32:11;7.00;;;4.37;;
9771;SDS011;4925;52.588;13.370;2024-02-26T03:34:37;6.10;;;4.30;;
9771;SDS011;4925;52.588;13.370;2024-02-26T03:37:04;4.87;;;4.07;;
9771;SDS011;4925;52.588;13.370;2024-02-26T03:39:31;6.17;;;4.43;;
9771;SDS011;4925;52.588;13.370;2024-02-26T03:41:57;5.47;;;4.50;;
9771;SDS011;4925;52.588;13.370;2024-02-26T03:44:22;8.50;;;4.43;;
9771;SDS011;4925;52.588;13.370;2024-02-26T03:46:48;6.20;;;4.23;;
9771;SDS011;4925;52.588;13.370;2024-02-26T03:49:13;4.37;;;3.97;;
9771;SDS011;4925;52.588;13.370;2024-02-26T03:51:39;5.40;;;4.10;;
9771;SDS011;4925;52.588;13.370;2024-02-26T03:54:08;7.67;;;4.03;;
9771;SDS011;4925;52.588;13.370;2024-02-26T03:56:34;7.27;;;4.10;;
9771;SDS011;4925;52.588;13.370;2024-02-26T03:59:00;4.80;;;3.60;;
9771;SDS011;4925;52.588;13.370;2024-02-26T04:01:27;6.70;;;4.03;;
9771;SDS011;4925;52.588;13.370;2024-02-26T04:03:53;7.80;;;3.90;;
9771;SDS011;4925;52.588;13.370;2024-02-26T04:06:19;8.03;;;3.90;;
9771;SDS011;4925;52.588;13.370;2024-02-26T04:08:46;9.53;;;5.00;;
9771;SDS011;4925;52.588;13.370;2024-02-26T04:11:12;8.43;;;4.53;;
9771;SDS011;4925;52.588;13.370;2024-02-26T04:13:38;5.00;;;4.03;;
9771;SDS011;4925;52.588;13.370;2024-02-26T04:16:04;6.77;;;3.83;;
9771;SDS011;4925;52.588;13.370;2024-02-26T04:18:31;5.17;;;3.47;;
9771;SDS011;4925;52.588;13.370;2024-02-26T04:20:57;6.57;;;4.50;;
9771;SDS011;4925;52.588;13.370;2024-02-26T04:23:23;5.30;;;4.43;;
9771;SDS011;4925;52.588;13.370;2024-02-26T04:25:50;4.47;;;4.03;;
9771;SDS011;4925;52.588;13.370;2024-02-26T04:28:15;10.30;;;3.83;;
9771;SDS011;4925;52.588;13.370;2024-02-26T04:30:41;5.40;;;3.80;;
9771;SDS011;4925;52.588;13.370;2024-02-26T04:33:07;4.37;;;3.80;;
9771;SDS011;4925;52.588;13.370;2024-02-26T04:35:33;4.57;;;3.83;;
9771;SDS011;4925;52.588;13.370;2024-02-26T04:38:02;5.27;;;4.10;;
9771;SDS011;4925;52.588;13.370;2024-02-26T04:40:28;8.33;;;4.00;;
9771;SDS011;4925;52.588;13.370;2024-02-26T04:42:53;8.33;;;5.40;;
9771;SDS011;4925;52.588;13.370;2024-02-26T04:45:19;9.70;;;5.80;;
9771;SDS011;4925;52.588;13.370;2024-02-26T04:47:45;5.83;;;4.93;;
9771;SDS011;4925;52.588;13.370;2024-02-26T04:50:12;5.70;;;4.50;;
9771;SDS011;4925;52.588;13.370;2024-02-26T04:52:37;9.13;;;4.97;;
9771;SDS011;4925;52.588;13.370;2024-02-26T04:55:03;4.50;;;4.10;;
9771;SDS011;4925;52.588;13.370;2024-02-26T04:57:29;5.13;;;4.47;;
9771;SDS011;4925;52.588;13.370;2024-02-26T04:59:54;7.43;;;4.57;;
9771;SDS011;4925;52.588;13.370;2024-02-26T05:02:20;13.23;;;4.77;;
9771;SDS011;4925;52.588;13.370;2024-02-26T05:04:46;8.53;;;4.13;;
9771;SDS011;4925;52.588;13.370;2024-02-26T05:07:12;7.17;;;4.40;;
9771;SDS011;4925;52.588;13.370;2024-02-26T05:09:37;8.07;;;4.80;;
9771;SDS011;4925;52.588;13.370;2024-02-26T05:12:03;7.47;;;4.80;;
9771;SDS011;4925;52.588;13.370;2024-02-26T05:14:31;10.10;;;4.97;;
9771;SDS011;4925;52.588;13.370;2024-02-26T05:16:56;6.70;;;4.80;;
9771;SDS011;4925;52.588;13.370;2024-02-26T05:19:22;8.30;;;4.57;;
9771;SDS011;4925;52.588;13.370;2024-02-26T05:21:48;7.40;;;4.43;;
9771;SDS011;4925;52.588;13.370;2024-02-26T05:24:15;11.87;;;9.30;;
9771;SDS011;4925;52.588;13.370;2024-02-26T05:26:43;11.83;;;8.47;;
9771;SDS011;4925;52.588;13.370;2024-02-26T05:29:09;9.03;;;7.47;;
9771;SDS011;4925;52.588;13.370;2024-02-26T05:31:34;6.93;;;6.13;;
9771;SDS011;4925;52.588;13.370;2024-02-26T05:34:00;7.37;;;5.47;;
9771;SDS011;4925;52.588;13.370;2024-02-26T05:36:26;8.63;;;6.83;;
9771;SDS011;4925;52.588;13.370;2024-02-26T05:38:58;6.03;;;4.83;;
9771;SDS011;4925;52.588;13.370;2024-02-26T05:41:25;7.17;;;4.60;;
9771;SDS011;4925;52.588;13.370;2024-02-26T05:43:52;7.13;;;4.40;;
9771;SDS011;4925;52.588;13.370;2024-02-26T05:46:18;8.00;;;4.57;;
9771;SDS011;4925;52.588;13.370;2024-02-26T05:48:46;8.63;;;5.00;;
9771;SDS011;4925;52.588;13.370;2024-02-26T05:51:13;8.63;;;5.50;;
9771;SDS011;4925;52.588;13.370;2024-02-26T05:53:41;8.03;;;4.83;;
9771;SDS011;4925;52.588;13.370;2024-02-26T05:56:13;7.90;;;5.53;;
9771;SDS011;4925;52.588;13.370;2024-02-26T05:58:39;10.63;;;5.20;;
9771;SDS011;4925;52.588;13.370;2024-02-26T06:01:06;5.97;;;5.07;;
9771;SDS011;4925;52.588;13.370;2024-02-26T06:03:31;8.73;;;6.30;;
9771;SDS011;4925;52.588;13.370;2024-02-26T06:05:57;9.57;;;5.37;;
9771;SDS011;4925;52.588;13.370;2024-02-26T06:08:23;9.97;;;6.57;;
9771;SDS011;4925;52.588;13.370;2024-02-26T06:10:49;8.50;;;6.27;;
9771;SDS011;4925;52.588;13.370;2024-02-26T06:13:14;11.50;;;6.80;;
9771;SDS011;4925;52.588;13.370;2024-02-26T06:15:40;11.47;;;6.43;;
9771;SDS011;4925;52.588;13.370;2024-02-26T06:18:05;7.90;;;5.53;;
9771;SDS011;4925;52.588;13.370;2024-02-26T06:20:31;8.90;;;5.17;;
9771;SDS011;4925;52.588;13.370;2024-02-26T06:22:57;10.23;;;6.10;;
9771;SDS011;4925;52.588;13.370;2024-02-26T06:25:22;7.30;;;6.03;;
9771;SDS011;4925;52.588;13.370;2024-02-26T06:27:48;11.40;;;5.80;;
9771;SDS011;4925;52.588;13.370;2024-02-26T06:30:14;9.60;;;5.37;;
9771;SDS011;4925;52.588;13.370;2024-02-26T06:32:40;7.37;;;5.17;;
9771;SDS011;4925;52.588;13.370;2024-02-26T06:35:06;11.00;;;5.13;;
9771;SDS011;4925;52.588;13.370;2024-02-26T06:37:34;9.53;;;5.50;;
9771;SDS011;4925;52.588;13.370;2024-02-26T06:40:01;46.13;;;25.30;;
9771;SDS011;4925;52.588;13.370;2024-02-26T06:42:31;34.07;;;21.60;;
9771;SDS011;4925;52.588;13.370;2024-02-26T06:44:58;11.73;;;8.40;;
9771;SDS011;4925;52.588;13.370;2024-02-26T06:47:24;9.67;;;6.33;;
9771;SDS011;4925;52.588;13.370;2024-02-26T06:49:50;12.23;;;6.10;;
9771;SDS011;4925;52.588;13.370;2024-02-26T06:52:16;9.50;;;5.63;;
9771;SDS011;4925;52.588;13.370;2024-02-26T06:54:42;10.10;;;6.43;;
9771;SDS011;4925;52.588;13.370;2024-02-26T06:57:07;10.50;;;6.70;;
9771;SDS011;4925;52.588;13.370;2024-02-26T06:59:34;17.37;;;7.93;;
9771;SDS011;4925;52.588;13.370;2024-02-26T07:02:00;10.67;;;6.30;;
9771;SDS011;4925;52.588;13.370;2024-02-26T07:04:27;13.07;;;6.47;;
9771;SDS011;4925;52.588;13.370;2024-02-26T07:06:56;12.57;;;6.50;;
9771;SDS011;4925;52.588;13.370;2024-02-26T07:09:22;10.63;;;5.57;;
9771;SDS011;4925;52.588;13.370;2024-02-26T07:11:47;6.83;;;5.50;;
9771;SDS011;4925;52.588;13.370;2024-02-26T07:14:14;9.87;;;6.07;;
9771;SDS011;4925;52.588;13.370;2024-02-26T07:16:41;14.33;;;6.33;;
9771;SDS011;4925;52.588;13.370;2024-02-26T07:19:08;12.63;;;6.50;;
9771;SDS011;4925;52.588;13.370;2024-02-26T07:21:33;13.63;;;7.07;;
9771;SDS011;4925;52.588;13.370;2024-02-26T07:23:59;11.03;;;7.03;;
9771;SDS011;4925;52.588;13.370;2024-02-26T07:26:25;11.97;;;7.67;;
9771;SDS011;4925;52.588;13.370;2024-02-26T07:28:52;14.60;;;7.70;;
9771;SDS011;4925;52.588;13.370;2024-02-26T07:31:17;13.87;;;8.60;;
9771;SDS011;4925;52.588;13.370;2024-02-26T07:33:43;13.27;;;7.20;;
9771;SDS011;4925;52.588;13.370;2024-02-26T07:36:09;13.97;;;7.03;;
9771;SDS011;4925;52.588;13.370;2024-02-26T07:38:36;12.97;;;7.30;;
9771;SDS011;4925;52.588;13.370;2024-02-26T07:41:02;13.13;;;6.97;;
9771;SDS011;4925;52.588;13.370;2024-02-26T07:43:28;14.10;;;7.23;;
9771;SDS011;4925;52.588;13.370;2024-02-26T07:45:54;12.23;;;6.87;;
9771;SDS011;4925;52.588;13.370;2024-02-26T07:48:20;15.73;;;7.50;;
9771;SDS011;4925;52.588;13.370;2024-02-26T07:50:46;12.53;;;8.10;;
9771;SDS011;4925;52.588;13.370;2024-02-26T07:53:11;10.63;;;6.37;;
9771;SDS011;4925;52.588;13.370;2024-02-26T07:55:38;20.53;;;10.43;;
9771;SDS011;4925;52.588;13.370;2024-02-26T07:58:03;19.97;;;10.90;;
9771;SDS011;4925;52.588;13.370;2024-02-26T08:00:29;12.73;;;7.97;;
9771;SDS011;4925;52.588;13.370;2024-02-26T08:02:55;18.80;;;7.87;;
9771;SDS011;4925;52.588;13.370;2024-02-26T08:05:20;18.83;;;9.10;;
9771;SDS011;4925;52.588;13.370;2024-02-26T08:07:47;12.60;;;7.90;;
9771;SDS011;4925;52.588;13.370;2024-02-26T08:10:14;11.87;;;8.07;;
9771;SDS011;4925;52.588;13.370;2024-02-26T08:12:40;15.67;;;8.40;;
9771;SDS011;4925;52.588;13.370;2024-02-26T08:15:06;15.50;;;8.33;;
9771;SDS011;4925;52.588;13.370;2024-02-26T08:17:32;14.20;;;8.83;;
9771;SDS011;4925;52.588;13.370;2024-02-26T08:19:59;13.63;;;8.83;;
9771;SDS011;4925;52.588;13.370;2024-02-26T08:22:27;13.13;;;7.90;;
9771;SDS011;4925;52.588;13.370;2024-02-26T08:24:55;17.27;;;8.40;;
9771;SDS011;4925;52.588;13.370;2024-02-26T08:27:21;12.40;;;9.33;;
9771;SDS011;4925;52.588;13.370;2024-02-26T08:29:49;13.77;;;8.70;;
9771;SDS011;4925;52.588;13.370;2024-02-26T08:32:15;14.23;;;9.27;;
9771;SDS011;4925;52.588;13.370;2024-02-26T08:34:41;14.83;;;9.47;;
9771;SDS011;4925;52.588;13.370;2024-02-26T08:37:07;11.90;;;8.87;;
9771;SDS011;4925;52.588;13.370;2024-02-26T08:39:32;12.80;;;8.77;;
9771;SDS011;4925;52.588;13.370;2024-02-26T08:41:58;11.90;;;9.37;;
9771;SDS011;4925;52.588;13.370;2024-02-26T08:44:24;12.43;;;8.70;;
9771;SDS011;4925;52.588;13.370;2024-02-26T08:46:51;13.40;;;9.00;;
9771;SDS011;4925;52.588;13.370;2024-02-26T08:49:17;13.47;;;8.77;;
9771;SDS011;4925;52.588;13.370;2024-02-26T08:51:42;13.20;;;8.60;;
9771;SDS011;4925;52.588;13.370;2024-02-26T08:54:09;13.93;;;9.53;;
9771;SDS011;4925;52.588;13.370;2024-02-26T08:56:35;15.10;;;9.43;;
9771;SDS011;4925;52.588;13.370;2024-02-26T08:59:00;11.73;;;8.80;;
9771;SDS011;4925;52.588;13.370;2024-02-26T09:01:28;17.77;;;9.27;;
9771;SDS011;4925;52.588;13.370;2024-02-26T09:03:54;14.03;;;9.43;;
9771;SDS011;4925;52.588;13.370;2024-02-26T09:06:21;13.20;;;9.20;;
9771;SDS011;4925;52.588;13.370;2024-02-26T09:08:46;19.63;;;10.33;;
9771;SDS011;4925;52.588;13.370;2024-02-26T09:11:12;13.30;;;10.20;;
9771;SDS011;4925;52.588;13.370;2024-02-26T09:13:39;17.47;;;10.73;;
9771;SDS011;4925;52.588;13.370;2024-02-26T09:16:05;17.63;;;10.57;;
9771;SDS011;4925;52.588;13.370;2024-02-26T09:18:32;19.10;;;9.97;;
9771;SDS011;4925;52.588;13.370;2024-02-26T09:20:58;20.07;;;10.57;;
9771;SDS011;4925;52.588;13.370;2024-02-26T09:23:25;12.77;;;9.67;;
9771;SDS011;4925;52.588;13.370;2024-02-26T09:25:51;13.50;;;9.83;;
9771;SDS011;4925;52.588;13.370;2024-02-26T09:28:17;13.40;;;10.03;;
9771;SDS011;4925;52.588;13.370;2024-02-26T09:30:43;12.90;;;9.80;;
9771;SDS011;4925;52.588;13.370;2024-02-26T09:33:09;16.67;;;10.17;;
9771;SDS011;4925;52.588;13.370;2024-02-26T09:35:35;13.93;;;10.23;;
9771;SDS011;4925;52.588;13.370;2024-02-26T09:38:01;21.27;;;10.23;;
9771;SDS011;4925;52.588;13.370;2024-02-26T09:40:28;14.17;;;9.87;;
9771;SDS011;4925;52.588;13.370;2024-02-26T09:42:58;14.87;;;9.33;;
9771;SDS011;4925;52.588;13.370;2024-02-26T09:45:25;12.07;;;9.47;;
9771;SDS011;4925;52.588;13.370;2024-02-26T09:47:55;14.83;;;9.83;;
9771;SDS011;4925;52.588;13.370;2024-02-26T09:50:22;15.83;;;9.50;;
9771;SDS011;4925;52.588;13.370;2024-02-26T09:52:48;12.30;;;9.47;;
9771;SDS011;4925;52.588;13.370;2024-02-26T09:55:15;16.80;;;10.07;;
9771;SDS011;4925;52.588;13.370;2024-02-26T09:57:42;11.30;;;9.90;;
9771;SDS011;4925;52.588;13.370;2024-02-26T10:00:12;13.37;;;9.87;;
9771;SDS011;4925;52.588;13.370;2024-02-26T10:02:47;14.73;;;9.47;;
9771;SDS011;4925;52.588;13.370;2024-02-26T10:05:18;10.63;;;8.90;;
9771;SDS011;4925;52.588;13.370;2024-02-26T10:07:46;15.57;;;9.90;;
9771;SDS011;4925;52.588;13.370;2024-02-26T10:10:13;14.33;;;9.80;;
9771;SDS011;4925;52.588;13.370;2024-02-26T10:12:39;18.33;;;9.37;;
9771;SDS011;4925;52.588;13.370;2024-02-26T10:15:05;14.60;;;9.23;;
9771;SDS011;4925;52.588;13.370;2024-02-26T10:17:33;12.63;;;9.27;;
9771;SDS011;4925;52.588;13.370;2024-02-26T10:20:17;11.77;;;9.43;;
9771;SDS011;4925;52.588;13.370;2024-02-26T10:22:47;13.13;;;9.13;;
9771;SDS011;4925;52.588;13.370;2024-02-26T10:25:13;13.17;;;9.80;;
9771;SDS011;4925;52.588;13.370;2024-02-26T10:27:42;10.40;;;8.93;;
9771;SDS011;4925;52.588;13.370;2024-02-26T10:30:18;15.30;;;8.90;;
9771;SDS011;4925;52.588;13.370;2024-02-26T10:32:48;10.60;;;8.93;;
9771;SDS011;4925;52.588;13.370;2024-02-26T10:35:18;18.27;;;9.30;;
9771;SDS011;4925;52.588;13.370;2024-02-26T10:37:47;9.63;;;8.40;;
9771;SDS011;4925;52.588;13.370;2024-02-26T10:40:14;8.87;;;7.93;;
9771;SDS011;4925;52.588;13.370;2024-02-26T10:42:40;14.80;;;8.47;;
9771;SDS011;4925;52.588;13.370;2024-02-26T10:45:07;15.70;;;7.83;;
9771;SDS011;4925;52.588;13.370;2024-02-26T10:47:39;11.57;;;7.43;;
9771;SDS011;4925;52.588;13.370;2024-02-26T10:50:07;9.60;;;7.97;;
9771;SDS011;4925;52.588;13.370;2024-02-26T10:52:34;11.80;;;8.00;;
9771;SDS011;4925;52.588;13.370;2024-02-26T10:55:02;9.87;;;7.57;;
9771;SDS011;4925;52.588;13.370;2024-02-26T10:57:39;15.37;;;8.50;;
9771;SDS011;4925;52.588;13.370;2024-02-26T11:00:17;16.07;;;7.67;;
9771;SDS011;4925;52.588;13.370;2024-02-26T11:02:44;11.80;;;8.10;;
9771;SDS011;4925;52.588;13.370;2024-02-26T11:05:11;15.80;;;8.87;;
9771;SDS011;4925;52.588;13.370;2024-02-26T11:07:38;10.73;;;7.37;;
9771;SDS011;4925;52.588;13.370;2024-02-26T11:10:07;9.10;;;7.13;;
9771;SDS011;4925;52.588;13.370;2024-02-26T11:12:34;11.07;;;8.43;;
9771;SDS011;4925;52.588;13.370;2024-02-26T11:15:02;7.57;;;6.77;;
9771;SDS011;4925;52.588;13.370;2024-02-26T11:17:30;10.43;;;7.70;;
9771;SDS011;4925;52.588;13.370;2024-02-26T11:19:59;10.83;;;7.23;;
9771;SDS011;4925;52.588;13.370;2024-02-26T11:22:29;10.47;;;7.60;;
9771;SDS011;4925;52.588;13.370;2024-02-26T11:24:56;9.30;;;6.97;;
9771;SDS011;4925;52.588;13.370;2024-02-26T11:27:29;13.77;;;7.67;;
9771;SDS011;4925;52.588;13.370;2024-02-26T11:30:00;9.13;;;7.20;;
9771;SDS011;4925;52.588;13.370;2024-02-26T11:32:30;9.40;;;6.83;;
9771;SDS011;4925;52.588;13.370;2024-02-26T11:34:58;7.80;;;6.77;;
9771;SDS011;4925;52.588;13.370;2024-02-26T11:37:23;12.73;;;6.97;;
9771;SDS011;4925;52.588;13.370;2024-02-26T11:39:51;8.77;;;7.50;;
9771;SDS011;4925;52.588;13.370;2024-02-26T11:42:22;9.73;;;7.47;;
9771;SDS011;4925;52.588;13.370;2024-02-26T11:44:50;9.93;;;6.90;;
9771;SDS011;4925;52.588;13.370;2024-02-26T11:47:21;13.50;;;8.00;;
9771;SDS011;4925;52.588;13.370;2024-02-26T11:49:48;8.23;;;7.23;;
9771;SDS011;4925;52.588;13.370;2024-02-26T11:52:14;10.17;;;8.20;;
9771;SDS011;4925;52.588;13.370;2024-02-26T11:54:50;10.57;;;8.50;;
9771;SDS011;4925;52.588;13.370;2024-02-26T11:57:19;11.87;;;9.03;;
9771;SDS011;4925;52.588;13.370;2024-02-26T12:00:10;12.47;;;8.37;;
9771;SDS011;4925;52.588;13.370;2024-02-26T12:05:16;11.33;;;8.03;;
9771;SDS011;4925;52.588;13.370;2024-02-26T12:10:35;14.27;;;8.20;;
9771;SDS011;4925;52.588;13.370;2024-02-26T12:13:16;15.17;;;8.73;;
9771;SDS011;4925;52.588;13.370;2024-02-26T12:18:12;9.67;;;7.87;;
9771;SDS011;4925;52.588;13.370;2024-02-26T12:20:42;12.20;;;7.17;;
9771;SDS011;4925;52.588;13.370;2024-02-26T12:23:09;8.93;;;6.63;;
9771;SDS011;4925;52.588;13.370;2024-02-26T12:25:40;5.53;;;5.00;;
9771;SDS011;4925;52.588;13.370;2024-02-26T12:28:06;9.10;;;5.77;;
9771;SDS011;4925;52.588;13.370;2024-02-26T12:30:32;5.33;;;4.83;;
9771;SDS011;4925;52.588;13.370;2024-02-26T12:32:58;6.27;;;4.47;;
9771;SDS011;4925;52.588;13.370;2024-02-26T12:35:25;18.13;;;12.50;;
9771;SDS011;4925;52.588;13.370;2024-02-26T12:37:52;6.67;;;5.47;;
9771;SDS011;4925;52.588;13.370;2024-02-26T12:40:19;8.40;;;4.87;;
9771;SDS011;4925;52.588;13.370;2024-02-26T12:42:46;6.37;;;4.00;;
9771;SDS011;4925;52.588;13.370;2024-02-26T12:45:12;4.00;;;3.37;;
9771;SDS011;4925;52.588;13.370;2024-02-26T12:47:43;5.23;;;3.27;;
9771;SDS011;4925;52.588;13.370;2024-02-26T12:50:14;6.10;;;3.47;;
9771;SDS011;4925;52.588;13.370;2024-02-26T12:52:42;4.70;;;3.77;;
9771;SDS011;4925;52.588;13.370;2024-02-26T12:55:09;6.03;;;4.13;;
9771;SDS011;4925;52.588;13.370;2024-02-26T12:57:39;5.03;;;3.33;;
9771;SDS011;4925;52.588;13.370;2024-02-26T13:00:09;2.87;;;2.67;;
9771;SDS011;4925;52.588;13.370;2024-02-26T13:02:39;3.77;;;2.50;;
9771;SDS011;4925;52.588;13.370;2024-02-26T13:05:07;3.27;;;2.37;;
9771;SDS011;4925;52.588;13.370;2024-02-26T13:07:34;3.97;;;2.70;;
9771;SDS011;4925;52.588;13.370;2024-02-26T13:10:05;3.80;;;2.43;;
9771;SDS011;4925;52.588;13.370;2024-02-26T13:12:32;4.23;;;2.03;;
9771;SDS011;4925;52.588;13.370;2024-02-26T13:15:03;2.50;;;2.30;;
9771;SDS011;4925;52.588;13.370;2024-02-26T13:17:33;3.47;;;2.27;;
9771;SDS011;4925;52.588;13.370;2024-02-26T13:19:59;3.53;;;2.23;;
9771;SDS011;4925;52.588;13.370;2024-02-26T13:22:25;7.47;;;2.63;;
9771;SDS011;4925;52.588;13.370;2024-02-26T13:24:54;2.80;;;2.40;;
9771;SDS011;4925;52.588;13.370;2024-02-26T13:27:24;3.43;;;2.20;;
9771;SDS011;4925;52.588;13.370;2024-02-26T13:30:09;2.67;;;2.30;;
9771;SDS011;4925;52.588;13.370;2024-02-26T13:32:36;4.77;;;2.20;;
9771;SDS011;4925;52.588;13.370;2024-02-26T13:35:09;2.87;;;1.87;;
9771;SDS011;4925;52.588;13.370;2024-02-26T13:37:36;3.23;;;1.90;;
9771;SDS011;4925;52.588;13.370;2024-02-26T13:40:07;4.27;;;1.90;;
9771;SDS011;4925;52.588;13.370;2024-02-26T13:42:37;10.83;;;6.03;;
9771;SDS011;4925;52.588;13.370;2024-02-26T13:45:03;8.60;;;6.63;;
9771;SDS011;4925;52.588;13.370;2024-02-26T13:47:33;2.97;;;2.43;;
9771;SDS011;4925;52.588;13.370;2024-02-26T13:50:00;3.97;;;2.07;;
9771;SDS011;4925;52.588;13.370;2024-02-26T13:52:26;4.17;;;2.40;;
9771;SDS011;4925;52.588;13.370;2024-02-26T13:54:52;2.30;;;2.10;;
9771;SDS011;4925;52.588;13.370;2024-02-26T13:57:19;3.13;;;2.33;;
9771;SDS011;4925;52.588;13.370;2024-02-26T13:59:45;5.47;;;2.57;;
9771;SDS011;4925;52.588;13.370;2024-02-26T14:02:11;9.53;;;2.73;;
9771;SDS011;4925;52.588;13.370;2024-02-26T14:04:37;5.87;;;2.77;;
9771;SDS011;4925;52.588;13.370;2024-02-26T14:07:02;3.47;;;2.63;;
9771;SDS011;4925;52.588;13.370;2024-02-26T14:09:29;3.73;;;2.40;;
9771;SDS011;4925;52.588;13.370;2024-02-26T14:11:55;3.20;;;2.50;;
9771;SDS011;4925;52.588;13.370;2024-02-26T14:14:21;3.20;;;2.50;;
9771;SDS011;4925;52.588;13.370;2024-02-26T14:16:47;5.10;;;2.67;;
9771;SDS011;4925;52.588;13.370;2024-02-26T14:19:12;4.03;;;3.00;;
9771;SDS011;4925;52.588;13.370;2024-02-26T14:21:38;5.50;;;2.70;;
9771;SDS011;4925;52.588;13.370;2024-02-26T14:24:04;7.63;;;3.27;;
9771;SDS011;4925;52.588;13.370;2024-02-26T14:26:30;4.90;;;3.40;;
9771;SDS011;4925;52.588;13.370;2024-02-26T14:28:57;3.30;;;2.80;;
9771;SDS011;4925;52.588;13.370;2024-02-26T14:31:23;5.10;;;3.57;;
9771;SDS011;4925;52.588;13.370;2024-02-26T14:33:50;4.67;;;3.50;;
9771;SDS011;4925;52.588;13.370;2024-02-26T14:36:19;5.37;;;3.43;;
9771;SDS011;4925;52.588;13.370;2024-02-26T14:38:50;8.30;;;3.73;;
9771;SDS011;4925;52.588;13.370;2024-02-26T14:41:19;5.10;;;3.30;;
9771;SDS011;4925;52.588;13.370;2024-02-26T14:43:45;8.07;;;4.07;;
9771;SDS011;4925;52.588;13.370;2024-02-26T14:46:11;6.77;;;3.90;;
9771;SDS011;4925;52.588;13.370;2024-02-26T14:48:36;5.93;;;4.03;;
9771;SDS011;4925;52.588;13.370;2024-02-26T14:51:03;7.07;;;4.50;;
9771;SDS011;4925;52.588;13.370;2024-02-26T14:53:31;6.53;;;4.00;;
9771;SDS011;4925;52.588;13.370;2024-02-26T14:55:58;8.10;;;3.80;;
9771;SDS011;4925;52.588;13.370;2024-02-26T14:58:24;5.83;;;4.20;;
9771;SDS011;4925;52.588;13.370;2024-02-26T15:00:50;6.53;;;3.80;;
9771;SDS011;4925;52.588;13.370;2024-02-26T15:03:16;16.43;;;4.63;;